sensor_id;sensor_type;location;lat;lon;timestamp;P1;durP1;ratioP1;P2;durP2;ratioP2
22490;SDS011;11412;50.802;4.350;2023-04-03T00:00:41;6.03;;;4.93;;
22490;SDS011;11412;50.802;4.350;2023-04-03T00:03:07;5.63;;;4.78;;
22490;SDS011;11412;50.802;4.350;2023-04-03T00:05:32;8.57;;;4.93;;
22490;SDS011;11412;50.802;4.350;2023-04-03T00:07:58;6.28;;;5.35;;
22490;SDS011;11412;50.802;4.350;2023-04-03T00:10:24;7.38;;;4.95;;
22490;SDS011;11412;50.802;4.350;2023-04-03T00:12:50;5.47;;;4.80;;
22490;SDS011;11412;50.802;4.350;2023-04-03T00:15:16;8.43;;;4.93;;
22490;SDS011;11412;50.802;4.350;2023-04-03T00:17:42;7.07;;;4.68;;
22490;SDS011;11412;50.802;4.350;2023-04-03T00:20:08;4.90;;;4.40;;
22490;SDS011;11412;50.802;4.350;2023-04-03T00:22:34;6.38;;;5.00;;
22490;SDS011;11412;50.802;4.350;2023-04-03T00:25:00;6.88;;;4.90;;
22490;SDS011;11412;50.802;4.350;2023-04-03T00:27:25;5.40;;;4.47;;
22490;SDS011;11412;50.802;4.350;2023-04-03T00:29:51;6.55;;;4.75;;
22490;SDS011;11412;50.802;4.350;2023-04-03T00:32:17;6.47;;;4.63;;
22490;SDS011;11412;50.802;4.350;2023-04-03T00:34:43;7.18;;;5.03;;
22490;SDS011;11412;50.802;4.350;2023-04-03T00:37:08;5.18;;;4.68;;
22490;SDS011;11412;50.802;4.350;2023-04-03T00:39:34;8.88;;;5.03;;
22490;SDS011;11412;50.802;4.350;2023-04-03T00:42:00;8.38;;;5.13;;
22490;SDS011;11412;50.802;4.350;2023-04-03T00:47:01;4.78;;;4.38;;
22490;SDS011;11412;50.802;4.350;2023-04-03T00:49:28;6.38;;;5.10;;
22490;SDS011;11412;50.802;4.350;2023-04-03T00:51:54;6.93;;;4.60;;
22490;SDS011;11412;50.802;4.350;2023-04-03T00:54:22;5.28;;;4.40;;
22490;SDS011;11412;50.802;4.350;2023-04-03T00:56:48;5.82;;;4.47;;
22490;SDS011;11412;50.802;4.350;2023-04-03T00:59:16;6.88;;;4.55;;
22490;SDS011;11412;50.802;4.350;2023-04-03T01:01:48;7.55;;;4.60;;
22490;SDS011;11412;50.802;4.350;2023-04-03T01:04:27;7.13;;;4.72;;
22490;SDS011;11412;50.802;4.350;2023-04-03T01:06:59;6.03;;;4.60;;
22490;SDS011;11412;50.802;4.350;2023-04-03T01:09:28;4.95;;;4.47;;
22490;SDS011;11412;50.802;4.350;2023-04-03T01:12:13;6.00;;;4.70;;
22490;SDS011;11412;50.802;4.350;2023-04-03T01:14:45;5.43;;;4.82;;
22490;SDS011;11412;50.802;4.350;2023-04-03T01:25:45;7.05;;;4.68;;
22490;SDS011;11412;50.802;4.350;2023-04-03T01:28:19;5.15;;;4.57;;
22490;SDS011;11412;50.802;4.350;2023-04-03T01:30:56;7.60;;;4.60;;
22490;SDS011;11412;50.802;4.350;2023-04-03T01:33:44;6.00;;;4.18;;
22490;SDS011;11412;50.802;4.350;2023-04-03T01:36:13;5.22;;;4.30;;
22490;SDS011;11412;50.802;4.350;2023-04-03T01:38:41;8.60;;;4.70;;
22490;SDS011;11412;50.802;4.350;2023-04-03T01:41:06;7.53;;;5.10;;
22490;SDS011;11412;50.802;4.350;2023-04-03T01:43:32;5.63;;;4.90;;
22490;SDS011;11412;50.802;4.350;2023-04-03T01:45:58;5.90;;;4.78;;
22490;SDS011;11412;50.802;4.350;2023-04-03T01:48:23;8.98;;;4.32;;
22490;SDS011;11412;50.802;4.350;2023-04-03T01:50:50;5.53;;;4.32;;
22490;SDS011;11412;50.802;4.350;2023-04-03T01:53:16;7.60;;;5.07;;
22490;SDS011;11412;50.802;4.350;2023-04-03T01:55:41;6.35;;;4.82;;
22490;SDS011;11412;50.802;4.350;2023-04-03T01:58:08;6.07;;;4.70;;
22490;SDS011;11412;50.802;4.350;2023-04-03T02:00:34;7.07;;;4.80;;
22490;SDS011;11412;50.802;4.350;2023-04-03T02:03:01;6.57;;;4.47;;
22490;SDS011;11412;50.802;4.350;2023-04-03T02:05:27;5.95;;;4.50;;
22490;SDS011;11412;50.802;4.350;2023-04-03T02:07:54;7.72;;;4.68;;
22490;SDS011;11412;50.802;4.350;2023-04-03T02:10:22;6.28;;;4.40;;
22490;SDS011;11412;50.802;4.350;2023-04-03T02:12:47;7.03;;;4.80;;
22490;SDS011;11412;50.802;4.350;2023-04-03T02:15:13;9.98;;;4.93;;
22490;SDS011;11412;50.802;4.350;2023-04-03T02:17:39;5.03;;;4.57;;
22490;SDS011;11412;50.802;4.350;2023-04-03T02:20:04;7.25;;;4.85;;
22490;SDS011;11412;50.802;4.350;2023-04-03T02:22:31;7.00;;;4.90;;
22490;SDS011;11412;50.802;4.350;2023-04-03T02:24:56;8.38;;;5.05;;
22490;SDS011;11412;50.802;4.350;2023-04-03T02:27:22;8.32;;;5.07;;
22490;SDS011;11412;50.802;4.350;2023-04-03T02:29:48;5.55;;;4.50;;
22490;SDS011;11412;50.802;4.350;2023-04-03T02:32:13;5.55;;;4.97;;
22490;SDS011;11412;50.802;4.350;2023-04-03T02:34:39;5.13;;;4.63;;
22490;SDS011;11412;50.802;4.350;2023-04-03T02:37:05;7.53;;;4.90;;
22490;SDS011;11412;50.802;4.350;2023-04-03T02:39:33;5.38;;;4.45;;
22490;SDS011;11412;50.802;4.350;2023-04-03T02:42:00;6.40;;;4.88;;
22490;SDS011;11412;50.802;4.350;2023-04-03T02:44:26;5.68;;;5.05;;
22490;SDS011;11412;50.802;4.350;2023-04-03T02:46:52;6.13;;;4.53;;
22490;SDS011;11412;50.802;4.350;2023-04-03T02:49:17;4.85;;;4.38;;
22490;SDS011;11412;50.802;4.350;2023-04-03T02:51:43;5.65;;;4.82;;
22490;SDS011;11412;50.802;4.350;2023-04-03T02:54:09;8.65;;;5.30;;
22490;SDS011;11412;50.802;4.350;2023-04-03T02:56:34;5.22;;;4.65;;
22490;SDS011;11412;50.802;4.350;2023-04-03T02:59:00;4.75;;;4.18;;
22490;SDS011;11412;50.802;4.350;2023-04-03T03:01:26;4.75;;;4.35;;
22490;SDS011;11412;50.802;4.350;2023-04-03T03:03:56;6.00;;;4.32;;
22490;SDS011;11412;50.802;4.350;2023-04-03T03:06:22;8.57;;;4.80;;
22490;SDS011;11412;50.802;4.350;2023-04-03T03:08:48;5.97;;;4.80;;
22490;SDS011;11412;50.802;4.350;2023-04-03T03:11:14;6.60;;;4.97;;
22490;SDS011;11412;50.802;4.350;2023-04-03T03:13:40;5.47;;;4.93;;
22490;SDS011;11412;50.802;4.350;2023-04-03T03:16:05;9.50;;;5.03;;
22490;SDS011;11412;50.802;4.350;2023-04-03T03:18:31;6.15;;;4.22;;
22490;SDS011;11412;50.802;4.350;2023-04-03T03:20:59;4.82;;;4.38;;
22490;SDS011;11412;50.802;4.350;2023-04-03T03:23:26;4.63;;;4.22;;
22490;SDS011;11412;50.802;4.350;2023-04-03T03:25:58;5.68;;;4.80;;
22490;SDS011;11412;50.802;4.350;2023-04-03T03:28:25;5.45;;;4.85;;
22490;SDS011;11412;50.802;4.350;2023-04-03T03:30:51;5.07;;;4.57;;
22490;SDS011;11412;50.802;4.350;2023-04-03T03:33:17;5.32;;;4.68;;
22490;SDS011;11412;50.802;4.350;2023-04-03T03:35:43;6.60;;;5.00;;
22490;SDS011;11412;50.802;4.350;2023-04-03T03:38:09;5.80;;;4.90;;
22490;SDS011;11412;50.802;4.350;2023-04-03T03:40:35;4.57;;;4.18;;
22490;SDS011;11412;50.802;4.350;2023-04-03T03:43:01;7.70;;;5.13;;
22490;SDS011;11412;50.802;4.350;2023-04-03T03:45:27;6.45;;;5.60;;
22490;SDS011;11412;50.802;4.350;2023-04-03T03:47:52;7.10;;;5.35;;
22490;SDS011;11412;50.802;4.350;2023-04-03T03:50:18;6.47;;;5.38;;
22490;SDS011;11412;50.802;4.350;2023-04-03T03:52:44;5.10;;;4.63;;
22490;SDS011;11412;50.802;4.350;2023-04-03T03:55:09;7.10;;;5.57;;
22490;SDS011;11412;50.802;4.350;2023-04-03T03:57:35;7.00;;;5.38;;
22490;SDS011;11412;50.802;4.350;2023-04-03T04:00:01;6.65;;;5.05;;
22490;SDS011;11412;50.802;4.350;2023-04-03T04:02:28;8.27;;;5.57;;
22490;SDS011;11412;50.802;4.350;2023-04-03T04:04:53;5.78;;;5.28;;
22490;SDS011;11412;50.802;4.350;2023-04-03T04:07:19;6.65;;;5.28;;
22490;SDS011;11412;50.802;4.350;2023-04-03T04:09:45;8.05;;;5.53;;
22490;SDS011;11412;50.802;4.350;2023-04-03T04:12:11;6.30;;;5.70;;
22490;SDS011;11412;50.802;4.350;2023-04-03T04:14:36;7.25;;;5.72;;
22490;SDS011;11412;50.802;4.350;2023-04-03T04:17:02;5.63;;;5.15;;
22490;SDS011;11412;50.802;4.350;2023-04-03T04:19:28;7.22;;;5.60;;
22490;SDS011;11412;50.802;4.350;2023-04-03T04:21:53;6.88;;;5.57;;
22490;SDS011;11412;50.802;4.350;2023-04-03T04:24:19;7.35;;;5.82;;
22490;SDS011;11412;50.802;4.350;2023-04-03T04:26:45;6.03;;;5.18;;
22490;SDS011;11412;50.802;4.350;2023-04-03T04:29:10;8.50;;;5.68;;
22490;SDS011;11412;50.802;4.350;2023-04-03T04:31:36;12.32;;;6.22;;
22490;SDS011;11412;50.802;4.350;2023-04-03T04:34:02;7.18;;;5.97;;
22490;SDS011;11412;50.802;4.350;2023-04-03T04:36:28;6.45;;;5.85;;
22490;SDS011;11412;50.802;4.350;2023-04-03T04:38:53;6.68;;;6.10;;
22490;SDS011;11412;50.802;4.350;2023-04-03T04:41:20;6.40;;;5.80;;
22490;SDS011;11412;50.802;4.350;2023-04-03T04:43:47;7.72;;;6.28;;
22490;SDS011;11412;50.802;4.350;2023-04-03T04:46:14;7.25;;;6.55;;
22490;SDS011;11412;50.802;4.350;2023-04-03T04:48:40;7.88;;;5.88;;
22490;SDS011;11412;50.802;4.350;2023-04-03T04:51:06;8.52;;;5.78;;
22490;SDS011;11412;50.802;4.350;2023-04-03T04:53:32;6.60;;;5.90;;
22490;SDS011;11412;50.802;4.350;2023-04-03T04:55:58;7.63;;;5.72;;
22490;SDS011;11412;50.802;4.350;2023-04-03T04:58:24;7.95;;;6.15;;
22490;SDS011;11412;50.802;4.350;2023-04-03T05:00:57;10.30;;;6.15;;
22490;SDS011;11412;50.802;4.350;2023-04-03T05:03:24;5.88;;;5.25;;
22490;SDS011;11412;50.802;4.350;2023-04-03T05:05:50;7.25;;;5.60;;
22490;SDS011;11412;50.802;4.350;2023-04-03T05:08:15;8.80;;;6.30;;
22490;SDS011;11412;50.802;4.350;2023-04-03T05:10:41;7.75;;;6.05;;
22490;SDS011;11412;50.802;4.350;2023-04-03T05:13:07;7.05;;;5.93;;
22490;SDS011;11412;50.802;4.350;2023-04-03T05:15:32;5.70;;;5.20;;
22490;SDS011;11412;50.802;4.350;2023-04-03T05:17:58;9.95;;;6.22;;
22490;SDS011;11412;50.802;4.350;2023-04-03T05:20:24;9.15;;;5.90;;
22490;SDS011;11412;50.802;4.350;2023-04-03T05:22:50;8.38;;;6.43;;
22490;SDS011;11412;50.802;4.350;2023-04-03T05:25:16;6.47;;;5.88;;
22490;SDS011;11412;50.802;4.350;2023-04-03T05:27:41;6.93;;;6.22;;
22490;SDS011;11412;50.802;4.350;2023-04-03T05:30:07;7.45;;;6.72;;
22490;SDS011;11412;50.802;4.350;2023-04-03T05:32:34;6.70;;;5.90;;
22490;SDS011;11412;50.802;4.350;2023-04-03T05:34:59;7.53;;;6.55;;
22490;SDS011;11412;50.802;4.350;2023-04-03T05:37:25;7.53;;;6.65;;
22490;SDS011;11412;50.802;4.350;2023-04-03T05:39:51;6.88;;;6.25;;
22490;SDS011;11412;50.802;4.350;2023-04-03T05:42:16;6.63;;;6.03;;
22490;SDS011;11412;50.802;4.350;2023-04-03T05:44:42;8.27;;;6.78;;
22490;SDS011;11412;50.802;4.350;2023-04-03T05:47:08;8.73;;;7.07;;
22490;SDS011;11412;50.802;4.350;2023-04-03T05:49:34;7.25;;;6.50;;
22490;SDS011;11412;50.802;4.350;2023-04-03T05:52:00;8.32;;;7.13;;
22490;SDS011;11412;50.802;4.350;2023-04-03T05:54:27;10.43;;;6.65;;
22490;SDS011;11412;50.802;4.350;2023-04-03T05:56:54;7.70;;;7.00;;
22490;SDS011;11412;50.802;4.350;2023-04-03T05:59:20;7.57;;;6.88;;
22490;SDS011;11412;50.802;4.350;2023-04-03T06:01:46;8.07;;;7.05;;
22490;SDS011;11412;50.802;4.350;2023-04-03T06:04:13;9.38;;;7.00;;
22490;SDS011;11412;50.802;4.350;2023-04-03T06:06:55;12.25;;;7.13;;
22490;SDS011;11412;50.802;4.350;2023-04-03T06:09:23;9.45;;;7.13;;
22490;SDS011;11412;50.802;4.350;2023-04-03T06:11:51;8.77;;;7.43;;
22490;SDS011;11412;50.802;4.350;2023-04-03T06:14:18;11.85;;;7.30;;
22490;SDS011;11412;50.802;4.350;2023-04-03T06:16:44;12.80;;;7.22;;
22490;SDS011;11412;50.802;4.350;2023-04-03T06:19:10;9.90;;;7.93;;
22490;SDS011;11412;50.802;4.350;2023-04-03T06:21:36;7.88;;;6.60;;
22490;SDS011;11412;50.802;4.350;2023-04-03T06:24:03;8.80;;;7.28;;
22490;SDS011;11412;50.802;4.350;2023-04-03T06:26:30;8.82;;;7.07;;
22490;SDS011;11412;50.802;4.350;2023-04-03T06:28:56;10.48;;;7.43;;
22490;SDS011;11412;50.802;4.350;2023-04-03T06:31:22;10.43;;;7.30;;
22490;SDS011;11412;50.802;4.350;2023-04-03T06:33:47;8.68;;;7.07;;
22490;SDS011;11412;50.802;4.350;2023-04-03T06:36:13;8.38;;;7.25;;
22490;SDS011;11412;50.802;4.350;2023-04-03T06:38:44;7.53;;;6.53;;
22490;SDS011;11412;50.802;4.350;2023-04-03T06:41:10;10.95;;;6.82;;
22490;SDS011;11412;50.802;4.350;2023-04-03T06:43:36;10.25;;;6.28;;
22490;SDS011;11412;50.802;4.350;2023-04-03T06:46:02;9.05;;;6.18;;
22490;SDS011;11412;50.802;4.350;2023-04-03T06:48:27;8.65;;;6.30;;
22490;SDS011;11412;50.802;4.350;2023-04-03T06:50:54;8.23;;;6.05;;
22490;SDS011;11412;50.802;4.350;2023-04-03T06:53:20;6.55;;;5.88;;
22490;SDS011;11412;50.802;4.350;2023-04-03T06:55:46;9.18;;;6.88;;
22490;SDS011;11412;50.802;4.350;2023-04-03T06:58:12;7.35;;;6.13;;
22490;SDS011;11412;50.802;4.350;2023-04-03T07:00:40;11.73;;;6.78;;
22490;SDS011;11412;50.802;4.350;2023-04-03T07:03:06;8.18;;;5.38;;
22490;SDS011;11412;50.802;4.350;2023-04-03T07:05:32;7.75;;;5.97;;
22490;SDS011;11412;50.802;4.350;2023-04-03T07:07:57;7.45;;;6.28;;
22490;SDS011;11412;50.802;4.350;2023-04-03T07:10:23;9.00;;;6.13;;
22490;SDS011;11412;50.802;4.350;2023-04-03T07:12:49;7.90;;;6.32;;
22490;SDS011;11412;50.802;4.350;2023-04-03T07:15:14;6.28;;;5.65;;
22490;SDS011;11412;50.802;4.350;2023-04-03T07:17:40;7.50;;;6.40;;
22490;SDS011;11412;50.802;4.350;2023-04-03T07:20:06;6.03;;;5.47;;
22490;SDS011;11412;50.802;4.350;2023-04-03T07:22:33;7.22;;;5.63;;
22490;SDS011;11412;50.802;4.350;2023-04-03T07:24:58;6.07;;;5.57;;
22490;SDS011;11412;50.802;4.350;2023-04-03T07:27:25;8.80;;;5.63;;
22490;SDS011;11412;50.802;4.350;2023-04-03T07:29:51;6.80;;;4.95;;
22490;SDS011;11412;50.802;4.350;2023-04-03T07:32:17;8.15;;;5.97;;
22490;SDS011;11412;50.802;4.350;2023-04-03T07:34:42;8.75;;;5.70;;
22490;SDS011;11412;50.802;4.350;2023-04-03T07:37:09;6.53;;;5.40;;
22490;SDS011;11412;50.802;4.350;2023-04-03T07:39:35;7.82;;;5.40;;
22490;SDS011;11412;50.802;4.350;2023-04-03T07:42:01;5.72;;;5.13;;
22490;SDS011;11412;50.802;4.350;2023-04-03T07:44:27;6.80;;;5.50;;
22490;SDS011;11412;50.802;4.350;2023-04-03T07:46:53;7.80;;;5.47;;
22490;SDS011;11412;50.802;4.350;2023-04-03T07:49:21;7.03;;;5.95;;
22490;SDS011;11412;50.802;4.350;2023-04-03T07:51:48;7.38;;;5.47;;
22490;SDS011;11412;50.802;4.350;2023-04-03T07:54:14;7.40;;;5.63;;
22490;SDS011;11412;50.802;4.350;2023-04-03T07:56:40;10.23;;;5.32;;
22490;SDS011;11412;50.802;4.350;2023-04-03T07:59:07;7.47;;;5.70;;
22490;SDS011;11412;50.802;4.350;2023-04-03T08:01:34;6.65;;;5.88;;
22490;SDS011;11412;50.802;4.350;2023-04-03T08:03:59;8.57;;;5.43;;
22490;SDS011;11412;50.802;4.350;2023-04-03T08:06:26;10.82;;;5.97;;
22490;SDS011;11412;50.802;4.350;2023-04-03T08:08:51;11.07;;;5.75;;
22490;SDS011;11412;50.802;4.350;2023-04-03T08:11:17;7.53;;;6.07;;
22490;SDS011;11412;50.802;4.350;2023-04-03T08:13:44;8.00;;;5.97;;
22490;SDS011;11412;50.802;4.350;2023-04-03T08:16:11;6.80;;;5.10;;
22490;SDS011;11412;50.802;4.350;2023-04-03T08:18:38;5.43;;;4.68;;
22490;SDS011;11412;50.802;4.350;2023-04-03T08:21:10;5.22;;;4.43;;
22490;SDS011;11412;50.802;4.350;2023-04-03T08:23:37;5.07;;;4.35;;
22490;SDS011;11412;50.802;4.350;2023-04-03T08:26:12;5.63;;;4.72;;
22490;SDS011;11412;50.802;4.350;2023-04-03T08:28:39;6.28;;;4.72;;
22490;SDS011;11412;50.802;4.350;2023-04-03T08:31:06;5.45;;;4.10;;
22490;SDS011;11412;50.802;4.350;2023-04-03T08:33:35;7.00;;;4.40;;
22490;SDS011;11412;50.802;4.350;2023-04-03T08:36:05;5.47;;;4.10;;
22490;SDS011;11412;50.802;4.350;2023-04-03T08:38:32;4.20;;;3.83;;
22490;SDS011;11412;50.802;4.350;2023-04-03T08:41:02;5.60;;;3.80;;
22490;SDS011;11412;50.802;4.350;2023-04-03T08:43:55;5.10;;;3.67;;
22490;SDS011;11412;50.802;4.350;2023-04-03T08:49:33;6.05;;;3.42;;
22490;SDS011;11412;50.802;4.350;2023-04-03T08:52:17;3.42;;;3.08;;
22490;SDS011;11412;50.802;4.350;2023-04-03T08:54:49;5.35;;;3.90;;
22490;SDS011;11412;50.802;4.350;2023-04-03T08:57:29;4.45;;;3.42;;
22490;SDS011;11412;50.802;4.350;2023-04-03T09:00:20;8.13;;;3.80;;
22490;SDS011;11412;50.802;4.350;2023-04-03T09:05:39;3.85;;;3.30;;
22490;SDS011;11412;50.802;4.350;2023-04-03T09:10:52;5.22;;;2.90;;
22490;SDS011;11412;50.802;4.350;2023-04-03T09:13:35;5.93;;;3.22;;
22490;SDS011;11412;50.802;4.350;2023-04-03T09:16:20;5.65;;;2.90;;
22490;SDS011;11412;50.802;4.350;2023-04-03T09:21:38;3.90;;;2.53;;
22490;SDS011;11412;50.802;4.350;2023-04-03T09:24:07;3.20;;;2.25;;
22490;SDS011;11412;50.802;4.350;2023-04-03T09:29:21;2.90;;;2.60;;
22490;SDS011;11412;50.802;4.350;2023-04-03T09:31:50;4.68;;;2.40;;
22490;SDS011;11412;50.802;4.350;2023-04-03T09:36:56;5.90;;;2.72;;
22490;SDS011;11412;50.802;4.350;2023-04-03T09:39:25;6.43;;;2.70;;
22490;SDS011;11412;50.802;4.350;2023-04-03T09:44:52;3.08;;;2.78;;
22490;SDS011;11412;50.802;4.350;2023-04-03T09:49:50;4.43;;;2.13;;
22490;SDS011;11412;50.802;4.350;2023-04-03T09:52:26;3.30;;;2.28;;
22490;SDS011;11412;50.802;4.350;2023-04-03T09:54:53;4.35;;;1.95;;
22490;SDS011;11412;50.802;4.350;2023-04-03T09:57:20;2.00;;;1.80;;
22490;SDS011;11412;50.802;4.350;2023-04-03T09:59:59;4.28;;;2.08;;
22490;SDS011;11412;50.802;4.350;2023-04-03T10:02:37;3.88;;;2.05;;
22490;SDS011;11412;50.802;4.350;2023-04-03T10:05:24;3.75;;;2.30;;
22490;SDS011;11412;50.802;4.350;2023-04-03T10:07:50;3.83;;;2.30;;
22490;SDS011;11412;50.802;4.350;2023-04-03T10:10:20;3.03;;;1.80;;
22490;SDS011;11412;50.802;4.350;2023-04-03T10:12:48;6.50;;;2.08;;
22490;SDS011;11412;50.802;4.350;2023-04-03T10:15:28;2.30;;;1.55;;
22490;SDS011;11412;50.802;4.350;2023-04-03T10:18:02;2.13;;;1.70;;
22490;SDS011;11412;50.802;4.350;2023-04-03T10:20:34;4.38;;;2.17;;
22490;SDS011;11412;50.802;4.350;2023-04-03T10:23:48;6.28;;;1.90;;
22490;SDS011;11412;50.802;4.350;2023-04-03T10:34:42;3.75;;;1.77;;
22490;SDS011;11412;50.802;4.350;2023-04-03T10:37:24;3.00;;;1.90;;
22490;SDS011;11412;50.802;4.350;2023-04-03T10:42:38;2.17;;;1.30;;
22490;SDS011;11412;50.802;4.350;2023-04-03T10:45:24;3.55;;;1.98;;
22490;SDS011;11412;50.802;4.350;2023-04-03T10:48:24;2.58;;;1.60;;
22490;SDS011;11412;50.802;4.350;2023-04-03T10:51:13;1.65;;;1.38;;
22490;SDS011;11412;50.802;4.350;2023-04-03T10:56:42;2.08;;;1.88;;
22490;SDS011;11412;50.802;4.350;2023-04-03T10:59:15;3.88;;;2.03;;
22490;SDS011;11412;50.802;4.350;2023-04-03T11:04:16;2.55;;;1.60;;
22490;SDS011;11412;50.802;4.350;2023-04-03T11:06:47;5.78;;;1.70;;
22490;SDS011;11412;50.802;4.350;2023-04-03T11:09:23;2.03;;;1.80;;
22490;SDS011;11412;50.802;4.350;2023-04-03T11:11:53;3.65;;;1.38;;
22490;SDS011;11412;50.802;4.350;2023-04-03T11:17:15;2.20;;;1.48;;
22490;SDS011;11412;50.802;4.350;2023-04-03T11:22:27;2.53;;;1.70;;
22490;SDS011;11412;50.802;4.350;2023-04-03T11:25:22;3.33;;;1.35;;
22490;SDS011;11412;50.802;4.350;2023-04-03T11:33:36;1.67;;;1.10;;
22490;SDS011;11412;50.802;4.350;2023-04-03T11:36:12;2.20;;;1.38;;
22490;SDS011;11412;50.802;4.350;2023-04-03T11:38:44;2.17;;;1.48;;
22490;SDS011;11412;50.802;4.350;2023-04-03T11:41:12;2.05;;;1.20;;
22490;SDS011;11412;50.802;4.350;2023-04-03T11:43:42;2.05;;;1.30;;
22490;SDS011;11412;50.802;4.350;2023-04-03T11:46:20;1.70;;;1.23;;
22490;SDS011;11412;50.802;4.350;2023-04-03T11:48:47;2.15;;;1.30;;
22490;SDS011;11412;50.802;4.350;2023-04-03T11:53:45;1.45;;;1.30;;
22490;SDS011;11412;50.802;4.350;2023-04-03T12:04:10;2.75;;;1.50;;
22490;SDS011;11412;50.802;4.350;2023-04-03T12:09:28;3.78;;;1.65;;
22490;SDS011;11412;50.802;4.350;2023-04-03T12:14:56;3.65;;;1.58;;
22490;SDS011;11412;50.802;4.350;2023-04-03T12:17:48;6.45;;;1.42;;
22490;SDS011;11412;50.802;4.350;2023-04-03T12:23:29;3.70;;;1.60;;
22490;SDS011;11412;50.802;4.350;2023-04-03T12:26:02;1.55;;;1.15;;
22490;SDS011;11412;50.802;4.350;2023-04-03T12:28:44;1.67;;;1.58;;
22490;SDS011;11412;50.802;4.350;2023-04-03T12:31:11;3.88;;;1.33;;
22490;SDS011;11412;50.802;4.350;2023-04-03T12:36:43;2.33;;;1.30;;
22490;SDS011;11412;50.802;4.350;2023-04-03T12:45:20;2.35;;;1.50;;
22490;SDS011;11412;50.802;4.350;2023-04-03T12:47:54;4.18;;;1.58;;
22490;SDS011;11412;50.802;4.350;2023-04-03T12:50:38;2.42;;;1.20;;
22490;SDS011;11412;50.802;4.350;2023-04-03T12:53:10;3.03;;;1.27;;
22490;SDS011;11412;50.802;4.350;2023-04-03T12:55:40;2.88;;;1.50;;
22490;SDS011;11412;50.802;4.350;2023-04-03T12:58:25;1.60;;;1.45;;
22490;SDS011;11412;50.802;4.350;2023-04-03T13:00:59;1.50;;;1.30;;
22490;SDS011;11412;50.802;4.350;2023-04-03T13:03:35;3.53;;;1.83;;
22490;SDS011;11412;50.802;4.350;2023-04-03T13:06:16;1.50;;;1.10;;
22490;SDS011;11412;50.802;4.350;2023-04-03T13:08:58;1.45;;;1.10;;
22490;SDS011;11412;50.802;4.350;2023-04-03T13:11:33;2.40;;;1.10;;
22490;SDS011;11412;50.802;4.350;2023-04-03T13:14:14;1.55;;;1.23;;
22490;SDS011;11412;50.802;4.350;2023-04-03T13:16:52;1.67;;;1.10;;
22490;SDS011;11412;50.802;4.350;2023-04-03T13:19:21;1.85;;;1.52;;
22490;SDS011;11412;50.802;4.350;2023-04-03T13:21:48;1.50;;;1.13;;
22490;SDS011;11412;50.802;4.350;2023-04-03T13:24:17;3.28;;;1.35;;
22490;SDS011;11412;50.802;4.350;2023-04-03T13:26:43;3.97;;;1.13;;
22490;SDS011;11412;50.802;4.350;2023-04-03T13:29:30;3.50;;;1.17;;
22490;SDS011;11412;50.802;4.350;2023-04-03T13:31:59;2.00;;;0.90;;
22490;SDS011;11412;50.802;4.350;2023-04-03T13:34:27;3.03;;;1.10;;
22490;SDS011;11412;50.802;4.350;2023-04-03T13:37:00;1.30;;;1.20;;
22490;SDS011;11412;50.802;4.350;2023-04-03T13:39:29;2.28;;;1.55;;
22490;SDS011;11412;50.802;4.350;2023-04-03T13:42:00;1.25;;;1.15;;
22490;SDS011;11412;50.802;4.350;2023-04-03T13:44:39;1.85;;;1.17;;
22490;SDS011;11412;50.802;4.350;2023-04-03T13:55:28;3.03;;;1.00;;
22490;SDS011;11412;50.802;4.350;2023-04-03T13:57:59;2.63;;;1.48;;
22490;SDS011;11412;50.802;4.350;2023-04-03T14:02:59;1.85;;;1.40;;
22490;SDS011;11412;50.802;4.350;2023-04-03T14:05:25;2.50;;;1.25;;
22490;SDS011;11412;50.802;4.350;2023-04-03T14:07:52;1.40;;;1.30;;
22490;SDS011;11412;50.802;4.350;2023-04-03T14:10:19;2.38;;;1.20;;
22490;SDS011;11412;50.802;4.350;2023-04-03T14:12:45;3.72;;;1.30;;
22490;SDS011;11412;50.802;4.350;2023-04-03T14:15:22;1.98;;;1.10;;
22490;SDS011;11412;50.802;4.350;2023-04-03T14:17:51;2.45;;;1.33;;
22490;SDS011;11412;50.802;4.350;2023-04-03T14:20:19;1.58;;;1.25;;
22490;SDS011;11412;50.802;4.350;2023-04-03T14:22:49;1.50;;;1.25;;
22490;SDS011;11412;50.802;4.350;2023-04-03T14:25:16;2.95;;;1.50;;
22490;SDS011;11412;50.802;4.350;2023-04-03T14:27:44;1.20;;;1.10;;
22490;SDS011;11412;50.802;4.350;2023-04-03T14:30:22;2.80;;;1.20;;
22490;SDS011;11412;50.802;4.350;2023-04-03T14:32:53;2.60;;;1.30;;
22490;SDS011;11412;50.802;4.350;2023-04-03T14:35:19;2.05;;;1.35;;
22490;SDS011;11412;50.802;4.350;2023-04-03T14:37:46;2.08;;;1.20;;
22490;SDS011;11412;50.802;4.350;2023-04-03T14:40:13;6.78;;;1.20;;
22490;SDS011;11412;50.802;4.350;2023-04-03T14:42:42;1.75;;;1.20;;
22490;SDS011;11412;50.802;4.350;2023-04-03T14:45:10;1.83;;;1.13;;
22490;SDS011;11412;50.802;4.350;2023-04-03T14:47:49;2.60;;;1.40;;
22490;SDS011;11412;50.802;4.350;2023-04-03T14:50:18;1.27;;;1.00;;
22490;SDS011;11412;50.802;4.350;2023-04-03T14:52:46;2.97;;;1.27;;
22490;SDS011;11412;50.802;4.350;2023-04-03T14:55:17;1.98;;;1.13;;
22490;SDS011;11412;50.802;4.350;2023-04-03T14:57:44;1.63;;;1.27;;
22490;SDS011;11412;50.802;4.350;2023-04-03T15:00:19;1.90;;;1.20;;
22490;SDS011;11412;50.802;4.350;2023-04-03T15:02:46;2.70;;;1.30;;
22490;SDS011;11412;50.802;4.350;2023-04-03T15:05:13;1.85;;;1.05;;
22490;SDS011;11412;50.802;4.350;2023-04-03T15:07:40;2.13;;;1.20;;
22490;SDS011;11412;50.802;4.350;2023-04-03T15:12:43;3.40;;;1.55;;
22490;SDS011;11412;50.802;4.350;2023-04-03T15:15:10;1.08;;;0.90;;
22490;SDS011;11412;50.802;4.350;2023-04-03T15:17:36;1.65;;;0.93;;
22490;SDS011;11412;50.802;4.350;2023-04-03T15:20:02;2.08;;;1.25;;
22490;SDS011;11412;50.802;4.350;2023-04-03T15:22:31;2.95;;;1.35;;
22490;SDS011;11412;50.802;4.350;2023-04-03T15:24:56;3.28;;;1.35;;
22490;SDS011;11412;50.802;4.350;2023-04-03T15:27:22;1.23;;;1.13;;
22490;SDS011;11412;50.802;4.350;2023-04-03T15:29:48;1.08;;;0.93;;
22490;SDS011;11412;50.802;4.350;2023-04-03T15:32:13;1.30;;;1.20;;
22490;SDS011;11412;50.802;4.350;2023-04-03T15:34:39;2.90;;;1.50;;
22490;SDS011;11412;50.802;4.350;2023-04-03T15:37:05;1.25;;;1.13;;
22490;SDS011;11412;50.802;4.350;2023-04-03T15:39:31;2.58;;;1.45;;
22490;SDS011;11412;50.802;4.350;2023-04-03T15:41:58;1.88;;;1.08;;
22490;SDS011;11412;50.802;4.350;2023-04-03T15:44:31;2.47;;;1.42;;
22490;SDS011;11412;50.802;4.350;2023-04-03T15:46:58;3.20;;;1.88;;
22490;SDS011;11412;50.802;4.350;2023-04-03T15:49:25;1.50;;;1.10;;
22490;SDS011;11412;50.802;4.350;2023-04-03T15:51:51;3.67;;;1.70;;
22490;SDS011;11412;50.802;4.350;2023-04-03T15:54:17;1.75;;;1.20;;
22490;SDS011;11412;50.802;4.350;2023-04-03T15:56:43;3.33;;;1.45;;
22490;SDS011;11412;50.802;4.350;2023-04-03T15:59:09;1.65;;;1.33;;
22490;SDS011;11412;50.802;4.350;2023-04-03T16:01:35;3.72;;;1.40;;
22490;SDS011;11412;50.802;4.350;2023-04-03T16:04:02;1.02;;;1.02;;
22490;SDS011;11412;50.802;4.350;2023-04-03T16:06:28;2.65;;;1.55;;
22490;SDS011;11412;50.802;4.350;2023-04-03T16:08:58;2.28;;;1.52;;
22490;SDS011;11412;50.802;4.350;2023-04-03T16:11:24;2.10;;;1.48;;
22490;SDS011;11412;50.802;4.350;2023-04-03T16:13:51;2.30;;;1.40;;
22490;SDS011;11412;50.802;4.350;2023-04-03T16:16:16;2.50;;;1.70;;
22490;SDS011;11412;50.802;4.350;2023-04-03T16:18:42;3.47;;;1.83;;
22490;SDS011;11412;50.802;4.350;2023-04-03T16:21:08;1.88;;;1.38;;
22490;SDS011;11412;50.802;4.350;2023-04-03T16:23:34;3.10;;;1.75;;
22490;SDS011;11412;50.802;4.350;2023-04-03T16:26:00;2.33;;;1.42;;
22490;SDS011;11412;50.802;4.350;2023-04-03T16:28:26;4.00;;;1.60;;
22490;SDS011;11412;50.802;4.350;2023-04-03T16:30:52;5.90;;;1.63;;
22490;SDS011;11412;50.802;4.350;2023-04-03T16:33:17;2.65;;;1.40;;
22490;SDS011;11412;50.802;4.350;2023-04-03T16:35:46;2.83;;;1.95;;
22490;SDS011;11412;50.802;4.350;2023-04-03T16:38:13;3.90;;;1.80;;
22490;SDS011;11412;50.802;4.350;2023-04-03T16:40:40;3.20;;;1.75;;